sensor_id;sensor_type;location;lat;lon;timestamp;temperature;humidity
27164;DHT22;14685;50.618;7.024;2023-08-01T00:00:02;19.30;99.90
27164;DHT22;14685;50.618;7.024;2023-08-01T00:02:30;19.30;99.90
27164;DHT22;14685;50.618;7.024;2023-08-01T00:04:57;19.30;99.90
27164;DHT22;14685;50.618;7.024;2023-08-01T00:07:26;19.30;99.90
27164;DHT22;14685;50.618;7.024;2023-08-01T00:09:53;19.30;99.90
27164;DHT22;14685;50.618;7.024;2023-08-01T00:12:20;19.30;99.90
27164;DHT22;14685;50.618;7.024;2023-08-01T00:14:48;19.30;99.90
27164;DHT22;14685;50.618;7.024;2023-08-01T00:17:15;19.30;99.90
27164;DHT22;14685;50.618;7.024;2023-08-01T00:19:45;19.30;99.90
27164;DHT22;14685;50.618;7.024;2023-08-01T00:22:11;19.20;99.90
27164;DHT22;14685;50.618;7.024;2023-08-01T00:24:39;19.10;99.90
27164;DHT22;14685;50.618;7.024;2023-08-01T00:27:06;19.20;99.90
27164;DHT22;14685;50.618;7.024;2023-08-01T00:29:36;19.20;99.90
27164;DHT22;14685;50.618;7.024;2023-08-01T00:32:03;19.20;99.90
27164;DHT22;14685;50.618;7.024;2023-08-01T00:34:30;19.20;99.90
27164;DHT22;14685;50.618;7.024;2023-08-01T00:36:57;19.30;99.90
27164;DHT22;14685;50.618;7.024;2023-08-01T00:39:24;19.30;99.90
27164;DHT22;14685;50.618;7.024;2023-08-01T00:41:51;19.40;99.90
27164;DHT22;14685;50.618;7.024;2023-08-01T00:44:18;19.30;99.90
27164;DHT22;14685;50.618;7.024;2023-08-01T00:46:45;19.40;99.90
27164;DHT22;14685;50.618;7.024;2023-08-01T00:49:13;19.50;99.90
27164;DHT22;14685;50.618;7.024;2023-08-01T00:51:41;19.50;99.90
27164;DHT22;14685;50.618;7.024;2023-08-01T00:54:09;19.50;99.90
27164;DHT22;14685;50.618;7.024;2023-08-01T00:56:36;19.60;99.90
27164;DHT22;14685;50.618;7.024;2023-08-01T00:59:05;19.60;99.90
27164;DHT22;14685;50.618;7.024;2023-08-01T01:01:32;19.70;99.90
27164;DHT22;14685;50.618;7.024;2023-08-01T01:03:59;19.70;99.90
27164;DHT22;14685;50.618;7.024;2023-08-01T01:06:44;19.70;99.90
27164;DHT22;14685;50.618;7.024;2023-08-01T01:09:15;19.70;99.90
27164;DHT22;14685;50.618;7.024;2023-08-01T01:11:43;19.70;99.90
27164;DHT22;14685;50.618;7.024;2023-08-01T01:14:11;19.70;99.90
27164;DHT22;14685;50.618;7.024;2023-08-01T01:16:38;19.70;99.90
27164;DHT22;14685;50.618;7.024;2023-08-01T01:19:08;19.70;99.90
27164;DHT22;14685;50.618;7.024;2023-08-01T01:21:38;19.70;99.90
27164;DHT22;14685;50.618;7.024;2023-08-01T01:24:09;19.70;99.90
27164;DHT22;14685;50.618;7.024;2023-08-01T01:26:37;19.80;99.90
27164;DHT22;14685;50.618;7.024;2023-08-01T01:29:05;19.80;99.90
27164;DHT22;14685;50.618;7.024;2023-08-01T01:31:37;19.80;99.90
27164;DHT22;14685;50.618;7.024;2023-08-01T01:34:05;19.80;99.90
27164;DHT22;14685;50.618;7.024;2023-08-01T01:36:32;19.80;99.90
27164;DHT22;14685;50.618;7.024;2023-08-01T01:38:59;19.80;99.90
27164;DHT22;14685;50.618;7.024;2023-08-01T01:41:27;19.90;99.90
27164;DHT22;14685;50.618;7.024;2023-08-01T01:43:55;19.90;99.90
27164;DHT22;14685;50.618;7.024;2023-08-01T01:46:22;19.80;99.90
27164;DHT22;14685;50.618;7.024;2023-08-01T01:48:49;19.90;99.90
27164;DHT22;14685;50.618;7.024;2023-08-01T01:51:16;19.90;99.90
27164;DHT22;14685;50.618;7.024;2023-08-01T01:53:43;19.90;99.90
27164;DHT22;14685;50.618;7.024;2023-08-01T01:56:10;19.90;99.90
27164;DHT22;14685;50.618;7.024;2023-08-01T01:58:37;19.90;99.90
27164;DHT22;14685;50.618;7.024;2023-08-01T02:01:05;19.90;99.90
27164;DHT22;14685;50.618;7.024;2023-08-01T02:03:32;20.00;99.90
27164;DHT22;14685;50.618;7.024;2023-08-01T02:05:59;20.00;99.90
27164;DHT22;14685;50.618;7.024;2023-08-01T02:08:26;20.00;99.90
27164;DHT22;14685;50.618;7.024;2023-08-01T02:10:54;20.00;99.90
27164;DHT22;14685;50.618;7.024;2023-08-01T02:13:23;20.00;99.90
27164;DHT22;14685;50.618;7.024;2023-08-01T02:15:50;20.00;99.90
27164;DHT22;14685;50.618;7.024;2023-08-01T02:18:17;20.00;99.90
27164;DHT22;14685;50.618;7.024;2023-08-01T02:20:44;20.00;99.90
27164;DHT22;14685;50.618;7.024;2023-08-01T02:23:11;20.00;99.90
27164;DHT22;14685;50.618;7.024;2023-08-01T02:25:42;20.00;99.90
27164;DHT22;14685;50.618;7.024;2023-08-01T02:28:10;20.00;99.90
27164;DHT22;14685;50.618;7.024;2023-08-01T02:30:39;20.00;99.90
27164;DHT22;14685;50.618;7.024;2023-08-01T02:33:06;20.00;99.90
27164;DHT22;14685;50.618;7.024;2023-08-01T02:35:33;20.10;99.90
27164;DHT22;14685;50.618;7.024;2023-08-01T02:38:01;20.00;99.90
27164;DHT22;14685;50.618;7.024;2023-08-01T02:40:29;20.10;99.90
27164;DHT22;14685;50.618;7.024;2023-08-01T02:42:57;20.20;99.90
27164;DHT22;14685;50.618;7.024;2023-08-01T02:45:24;20.10;99.90
27164;DHT22;14685;50.618;7.024;2023-08-01T02:47:50;20.10;99.90
27164;DHT22;14685;50.618;7.024;2023-08-01T02:50:23;20.10;99.90
27164;DHT22;14685;50.618;7.024;2023-08-01T02:52:50;20.20;99.90
27164;DHT22;14685;50.618;7.024;2023-08-01T02:55:17;20.20;99.90
27164;DHT22;14685;50.618;7.024;2023-08-01T02:57:44;20.20;99.90
27164;DHT22;14685;50.618;7.024;2023-08-01T03:00:12;20.10;99.90
27164;DHT22;14685;50.618;7.024;2023-08-01T03:02:39;20.10;99.90
27164;DHT22;14685;50.618;7.024;2023-08-01T03:05:08;20.10;99.90
27164;DHT22;14685;50.618;7.024;2023-08-01T03:07:35;20.10;99.90
27164;DHT22;14685;50.618;7.024;2023-08-01T03:10:02;20.00;99.90
27164;DHT22;14685;50.618;7.024;2023-08-01T03:12:29;20.00;99.90
27164;DHT22;14685;50.618;7.024;2023-08-01T03:14:57;19.90;99.90
27164;DHT22;14685;50.618;7.024;2023-08-01T03:17:25;19.90;99.90
27164;DHT22;14685;50.618;7.024;2023-08-01T03:19:53;19.90;99.90
27164;DHT22;14685;50.618;7.024;2023-08-01T03:22:22;19.90;99.90
27164;DHT22;14685;50.618;7.024;2023-08-01T03:24:48;19.90;99.90
27164;DHT22;14685;50.618;7.024;2023-08-01T03:27:15;19.80;99.90
27164;DHT22;14685;50.618;7.024;2023-08-01T03:29:45;19.80;99.90
27164;DHT22;14685;50.618;7.024;2023-08-01T03:32:12;19.80;99.90
27164;DHT22;14685;50.618;7.024;2023-08-01T03:34:39;19.80;99.90
27164;DHT22;14685;50.618;7.024;2023-08-01T03:37:08;19.80;99.90
27164;DHT22;14685;50.618;7.024;2023-08-01T03:39:35;19.70;99.90
27164;DHT22;14685;50.618;7.024;2023-08-01T03:42:02;19.70;99.90
27164;DHT22;14685;50.618;7.024;2023-08-01T03:44:32;19.70;99.90
27164;DHT22;14685;50.618;7.024;2023-08-01T03:46:59;19.70;99.90
27164;DHT22;14685;50.618;7.024;2023-08-01T03:49:27;19.70;99.90
27164;DHT22;14685;50.618;7.024;2023-08-01T03:51:55;19.60;99.90
27164;DHT22;14685;50.618;7.024;2023-08-01T03:54:27;19.70;99.90
27164;DHT22;14685;50.618;7.024;2023-08-01T03:56:54;19.70;99.90
27164;DHT22;14685;50.618;7.024;2023-08-01T03:59:22;19.60;99.90
27164;DHT22;14685;50.618;7.024;2023-08-01T04:01:49;19.60;99.90
27164;DHT22;14685;50.618;7.024;2023-08-01T04:04:17;19.60;99.90
27164;DHT22;14685;50.618;7.024;2023-08-01T04:06:46;19.60;99.90
27164;DHT22;14685;50.618;7.024;2023-08-01T04:09:13;19.50;99.90
27164;DHT22;14685;50.618;7.024;2023-08-01T04:11:42;19.60;99.90
27164;DHT22;14685;50.618;7.024;2023-08-01T04:14:09;19.50;99.90
27164;DHT22;14685;50.618;7.024;2023-08-01T04:16:36;19.60;99.90
27164;DHT22;14685;50.618;7.024;2023-08-01T04:19:04;19.60;99.90
27164;DHT22;14685;50.618;7.024;2023-08-01T04:21:31;19.50;99.90
27164;DHT22;14685;50.618;7.024;2023-08-01T04:23:58;19.50;99.90
27164;DHT22;14685;50.618;7.024;2023-08-01T04:26:24;19.50;99.90
27164;DHT22;14685;50.618;7.024;2023-08-01T04:28:52;19.50;99.90
27164;DHT22;14685;50.618;7.024;2023-08-01T04:31:19;19.50;99.90
27164;DHT22;14685;50.618;7.024;2023-08-01T04:33:46;19.50;99.90
27164;DHT22;14685;50.618;7.024;2023-08-01T04:36:13;19.50;99.90
27164;DHT22;14685;50.618;7.024;2023-08-01T04:38:41;19.50;99.90
27164;DHT22;14685;50.618;7.024;2023-08-01T04:41:08;19.50;99.90
27164;DHT22;14685;50.618;7.024;2023-08-01T04:43:35;19.50;99.90
27164;DHT22;14685;50.618;7.024;2023-08-01T04:46:04;19.50;99.90
27164;DHT22;14685;50.618;7.024;2023-08-01T04:48:31;19.50;99.90
27164;DHT22;14685;50.618;7.024;2023-08-01T04:50:58;19.50;99.90
27164;DHT22;14685;50.618;7.024;2023-08-01T04:53:25;19.50;99.90
27164;DHT22;14685;50.618;7.024;2023-08-01T04:55:51;19.50;99.90
27164;DHT22;14685;50.618;7.024;2023-08-01T04:58:18;19.50;99.90
27164;DHT22;14685;50.618;7.024;2023-08-01T05:00:45;19.50;99.90
27164;DHT22;14685;50.618;7.024;2023-08-01T05:03:12;19.50;99.90
27164;DHT22;14685;50.618;7.024;2023-08-01T05:05:40;19.50;99.90
27164;DHT22;14685;50.618;7.024;2023-08-01T05:08:07;19.50;99.90
27164;DHT22;14685;50.618;7.024;2023-08-01T05:10:34;19.50;99.90
27164;DHT22;14685;50.618;7.024;2023-08-01T05:13:01;19.60;99.90
27164;DHT22;14685;50.618;7.024;2023-08-01T05:15:31;19.50;99.90
27164;DHT22;14685;50.618;7.024;2023-08-01T05:17:58;19.50;99.90
27164;DHT22;14685;50.618;7.024;2023-08-01T05:20:25;19.50;99.90
27164;DHT22;14685;50.618;7.024;2023-08-01T05:22:57;19.50;99.90
27164;DHT22;14685;50.618;7.024;2023-08-01T05:25:27;19.60;99.90
27164;DHT22;14685;50.618;7.024;2023-08-01T05:27:55;19.50;99.90
27164;DHT22;14685;50.618;7.024;2023-08-01T05:30:25;19.50;99.90
27164;DHT22;14685;50.618;7.024;2023-08-01T05:32:54;19.50;99.90
27164;DHT22;14685;50.618;7.024;2023-08-01T05:35:21;19.60;99.90
27164;DHT22;14685;50.618;7.024;2023-08-01T05:37:48;19.50;99.90
27164;DHT22;14685;50.618;7.024;2023-08-01T05:40:16;19.70;99.90
27164;DHT22;14685;50.618;7.024;2023-08-01T05:42:43;19.60;99.90
27164;DHT22;14685;50.618;7.024;2023-08-01T05:45:10;19.50;99.90
27164;DHT22;14685;50.618;7.024;2023-08-01T05:47:40;19.60;99.90
27164;DHT22;14685;50.618;7.024;2023-08-01T05:50:09;19.60;99.90
27164;DHT22;14685;50.618;7.024;2023-08-01T05:52:42;19.50;99.90
27164;DHT22;14685;50.618;7.024;2023-08-01T05:55:09;19.60;99.90
27164;DHT22;14685;50.618;7.024;2023-08-01T05:57:39;19.60;99.90
27164;DHT22;14685;50.618;7.024;2023-08-01T06:00:06;19.60;99.90
27164;DHT22;14685;50.618;7.024;2023-08-01T06:02:33;19.60;99.90
27164;DHT22;14685;50.618;7.024;2023-08-01T06:05:01;19.50;99.90
27164;DHT22;14685;50.618;7.024;2023-08-01T06:07:28;19.50;99.90
27164;DHT22;14685;50.618;7.024;2023-08-01T06:09:55;19.50;99.90
27164;DHT22;14685;50.618;7.024;2023-08-01T06:12:22;19.50;99.90
27164;DHT22;14685;50.618;7.024;2023-08-01T06:14:49;19.50;99.90
27164;DHT22;14685;50.618;7.024;2023-08-01T06:17:17;19.70;99.90
27164;DHT22;14685;50.618;7.024;2023-08-01T06:19:47;19.70;99.90
27164;DHT22;14685;50.618;7.024;2023-08-01T06:22:16;19.90;99.90
27164;DHT22;14685;50.618;7.024;2023-08-01T06:24:43;20.00;99.90
27164;DHT22;14685;50.618;7.024;2023-08-01T06:27:12;20.20;99.90
27164;DHT22;14685;50.618;7.024;2023-08-01T06:29:39;20.30;99.90
27164;DHT22;14685;50.618;7.024;2023-08-01T06:32:06;20.50;99.90
27164;DHT22;14685;50.618;7.024;2023-08-01T06:34:33;20.60;99.90
27164;DHT22;14685;50.618;7.024;2023-08-01T06:37:00;20.70;99.90
27164;DHT22;14685;50.618;7.024;2023-08-01T06:39:28;20.80;99.90
27164;DHT22;14685;50.618;7.024;2023-08-01T06:41:56;20.90;99.90
27164;DHT22;14685;50.618;7.024;2023-08-01T06:44:23;21.00;99.90
27164;DHT22;14685;50.618;7.024;2023-08-01T06:46:50;21.10;99.90
27164;DHT22;14685;50.618;7.024;2023-08-01T06:49:17;21.20;99.90
27164;DHT22;14685;50.618;7.024;2023-08-01T06:51:45;21.40;99.90
27164;DHT22;14685;50.618;7.024;2023-08-01T06:54:13;21.30;99.90
27164;DHT22;14685;50.618;7.024;2023-08-01T06:56:41;21.30;99.90
27164;DHT22;14685;50.618;7.024;2023-08-01T06:59:14;21.30;99.90
27164;DHT22;14685;50.618;7.024;2023-08-01T07:01:43;21.30;99.90
27164;DHT22;14685;50.618;7.024;2023-08-01T07:04:11;21.30;99.90
27164;DHT22;14685;50.618;7.024;2023-08-01T07:06:38;21.00;99.90
27164;DHT22;14685;50.618;7.024;2023-08-01T07:09:06;20.90;99.90
27164;DHT22;14685;50.618;7.024;2023-08-01T07:11:33;20.90;99.90
27164;DHT22;14685;50.618;7.024;2023-08-01T07:14:00;20.90;99.90
27164;DHT22;14685;50.618;7.024;2023-08-01T07:16:27;20.90;99.90
27164;DHT22;14685;50.618;7.024;2023-08-01T07:18:55;20.90;99.90
27164;DHT22;14685;50.618;7.024;2023-08-01T07:21:22;20.90;99.90
27164;DHT22;14685;50.618;7.024;2023-08-01T07:23:49;20.90;99.90
27164;DHT22;14685;50.618;7.024;2023-08-01T07:26:16;20.90;99.90
27164;DHT22;14685;50.618;7.024;2023-08-01T07:28:43;20.80;99.90
27164;DHT22;14685;50.618;7.024;2023-08-01T07:31:10;20.90;99.90
27164;DHT22;14685;50.618;7.024;2023-08-01T07:33:39;20.80;99.90
27164;DHT22;14685;50.618;7.024;2023-08-01T07:36:06;20.80;99.90
27164;DHT22;14685;50.618;7.024;2023-08-01T07:38:33;20.80;99.90
27164;DHT22;14685;50.618;7.024;2023-08-01T07:41:05;20.80;99.90
27164;DHT22;14685;50.618;7.024;2023-08-01T07:43:34;20.70;99.90
27164;DHT22;14685;50.618;7.024;2023-08-01T07:46:01;20.70;99.90
27164;DHT22;14685;50.618;7.024;2023-08-01T07:48:28;20.70;99.90
27164;DHT22;14685;50.618;7.024;2023-08-01T07:50:55;20.70;99.90
27164;DHT22;14685;50.618;7.024;2023-08-01T07:53:22;20.90;99.90
27164;DHT22;14685;50.618;7.024;2023-08-01T07:55:51;20.80;99.90
27164;DHT22;14685;50.618;7.024;2023-08-01T07:58:18;21.00;99.90
27164;DHT22;14685;50.618;7.024;2023-08-01T08:00:46;21.20;99.90
27164;DHT22;14685;50.618;7.024;2023-08-01T08:05:40;21.80;99.90
27164;DHT22;14685;50.618;7.024;2023-08-01T08:08:08;21.80;99.90
27164;DHT22;14685;50.618;7.024;2023-08-01T08:10:35;21.80;99.90
27164;DHT22;14685;50.618;7.024;2023-08-01T08:13:04;21.60;99.90
27164;DHT22;14685;50.618;7.024;2023-08-01T08:15:30;21.50;99.90
27164;DHT22;14685;50.618;7.024;2023-08-01T08:18:01;21.40;99.90
27164;DHT22;14685;50.618;7.024;2023-08-01T08:20:33;21.30;99.90
27164;DHT22;14685;50.618;7.024;2023-08-01T08:23:01;21.30;99.90
27164;DHT22;14685;50.618;7.024;2023-08-01T08:25:28;21.60;99.90
27164;DHT22;14685;50.618;7.024;2023-08-01T08:27:56;21.90;99.90
27164;DHT22;14685;50.618;7.024;2023-08-01T08:30:22;22.00;99.90
27164;DHT22;14685;50.618;7.024;2023-08-01T08:32:50;22.10;99.90
27164;DHT22;14685;50.618;7.024;2023-08-01T08:35:17;21.90;99.90
27164;DHT22;14685;50.618;7.024;2023-08-01T08:37:45;21.90;99.90
27164;DHT22;14685;50.618;7.024;2023-08-01T08:40:13;21.80;99.90
27164;DHT22;14685;50.618;7.024;2023-08-01T08:42:41;21.60;99.90
27164;DHT22;14685;50.618;7.024;2023-08-01T08:45:10;21.70;99.90
27164;DHT22;14685;50.618;7.024;2023-08-01T08:47:42;21.80;99.90
27164;DHT22;14685;50.618;7.024;2023-08-01T08:50:11;22.00;99.90
27164;DHT22;14685;50.618;7.024;2023-08-01T08:52:40;22.20;99.90
27164;DHT22;14685;50.618;7.024;2023-08-01T08:55:07;22.30;99.90
27164;DHT22;14685;50.618;7.024;2023-08-01T08:57:34;22.40;99.90
27164;DHT22;14685;50.618;7.024;2023-08-01T09:00:03;22.40;99.90
27164;DHT22;14685;50.618;7.024;2023-08-01T09:02:32;22.30;99.90
27164;DHT22;14685;50.618;7.024;2023-08-01T09:05:01;22.20;99.90
27164;DHT22;14685;50.618;7.024;2023-08-01T09:07:30;22.40;99.90
27164;DHT22;14685;50.618;7.024;2023-08-01T09:10:00;22.60;99.90
27164;DHT22;14685;50.618;7.024;2023-08-01T09:12:27;22.80;99.90
27164;DHT22;14685;50.618;7.024;2023-08-01T09:14:56;23.10;99.90
27164;DHT22;14685;50.618;7.024;2023-08-01T09:17:25;23.30;99.90
27164;DHT22;14685;50.618;7.024;2023-08-01T09:20:11;23.30;99.90
27164;DHT22;14685;50.618;7.024;2023-08-01T09:22:47;23.50;99.90
27164;DHT22;14685;50.618;7.024;2023-08-01T09:25:14;23.30;99.90
27164;DHT22;14685;50.618;7.024;2023-08-01T09:27:41;23.30;99.90
27164;DHT22;14685;50.618;7.024;2023-08-01T09:30:13;23.10;99.90
27164;DHT22;14685;50.618;7.024;2023-08-01T09:32:52;23.00;99.90
27164;DHT22;14685;50.618;7.024;2023-08-01T09:35:23;23.10;99.90
27164;DHT22;14685;50.618;7.024;2023-08-01T09:37:51;23.10;99.90
27164;DHT22;14685;50.618;7.024;2023-08-01T09:40:21;23.40;99.90
27164;DHT22;14685;50.618;7.024;2023-08-01T09:42:48;23.30;99.90
27164;DHT22;14685;50.618;7.024;2023-08-01T09:45:16;23.30;99.90
27164;DHT22;14685;50.618;7.024;2023-08-01T09:47:44;23.30;99.90
27164;DHT22;14685;50.618;7.024;2023-08-01T09:50:21;23.40;99.90
27164;DHT22;14685;50.618;7.024;2023-08-01T09:52:48;23.50;99.90
27164;DHT22;14685;50.618;7.024;2023-08-01T09:55:35;23.60;99.90
27164;DHT22;14685;50.618;7.024;2023-08-01T09:58:04;23.60;99.90
27164;DHT22;14685;50.618;7.024;2023-08-01T10:00:34;23.50;99.90
27164;DHT22;14685;50.618;7.024;2023-08-01T10:03:01;23.50;99.90
27164;DHT22;14685;50.618;7.024;2023-08-01T10:05:32;23.20;99.90
27164;DHT22;14685;50.618;7.024;2023-08-01T10:08:02;23.10;99.90
27164;DHT22;14685;50.618;7.024;2023-08-01T10:10:29;23.00;99.90
27164;DHT22;14685;50.618;7.024;2023-08-01T10:12:57;23.00;99.90
27164;DHT22;14685;50.618;7.024;2023-08-01T10:15:25;23.20;99.90
27164;DHT22;14685;50.618;7.024;2023-08-01T10:17:53;23.30;99.90
27164;DHT22;14685;50.618;7.024;2023-08-01T10:20:21;23.40;99.90
27164;DHT22;14685;50.618;7.024;2023-08-01T10:22:50;23.50;99.90
27164;DHT22;14685;50.618;7.024;2023-08-01T10:25:18;23.50;99.90
27164;DHT22;14685;50.618;7.024;2023-08-01T10:27:57;23.50;99.90
27164;DHT22;14685;50.618;7.024;2023-08-01T10:30:28;23.70;99.90
27164;DHT22;14685;50.618;7.024;2023-08-01T10:32:56;23.80;99.90
27164;DHT22;14685;50.618;7.024;2023-08-01T10:35:37;23.70;99.90
27164;DHT22;14685;50.618;7.024;2023-08-01T10:40:42;23.60;99.90
27164;DHT22;14685;50.618;7.024;2023-08-01T10:43:22;23.60;99.90
27164;DHT22;14685;50.618;7.024;2023-08-01T10:46:03;23.60;99.90
27164;DHT22;14685;50.618;7.024;2023-08-01T10:48:30;23.70;99.90
27164;DHT22;14685;50.618;7.024;2023-08-01T10:50:58;23.80;99.90
27164;DHT22;14685;50.618;7.024;2023-08-01T10:53:25;23.90;99.90
27164;DHT22;14685;50.618;7.024;2023-08-01T10:55:53;23.90;99.90
27164;DHT22;14685;50.618;7.024;2023-08-01T10:58:26;23.90;99.90
27164;DHT22;14685;50.618;7.024;2023-08-01T11:01:00;23.90;99.90
27164;DHT22;14685;50.618;7.024;2023-08-01T11:03:39;23.90;99.90
27164;DHT22;14685;50.618;7.024;2023-08-01T11:06:06;24.00;99.90
27164;DHT22;14685;50.618;7.024;2023-08-01T11:08:38;24.10;99.90
27164;DHT22;14685;50.618;7.024;2023-08-01T11:11:08;24.30;99.90
27164;DHT22;14685;50.618;7.024;2023-08-01T11:13:40;24.20;99.90
27164;DHT22;14685;50.618;7.024;2023-08-01T11:16:10;24.30;99.90
27164;DHT22;14685;50.618;7.024;2023-08-01T11:18:45;24.20;99.90
27164;DHT22;14685;50.618;7.024;2023-08-01T11:21:11;24.20;99.90
27164;DHT22;14685;50.618;7.024;2023-08-01T11:23:39;24.30;99.90
27164;DHT22;14685;50.618;7.024;2023-08-01T11:26:07;24.20;99.90
27164;DHT22;14685;50.618;7.024;2023-08-01T11:28:35;24.10;99.90
27164;DHT22;14685;50.618;7.024;2023-08-01T11:31:13;24.20;99.90
27164;DHT22;14685;50.618;7.024;2023-08-01T11:33:40;24.10;99.90
27164;DHT22;14685;50.618;7.024;2023-08-01T11:36:08;24.00;99.90
27164;DHT22;14685;50.618;7.024;2023-08-01T11:38:36;24.00;99.90
27164;DHT22;14685;50.618;7.024;2023-08-01T11:41:04;23.90;99.90
27164;DHT22;14685;50.618;7.024;2023-08-01T11:43:42;23.80;99.90
27164;DHT22;14685;50.618;7.024;2023-08-01T11:46:10;23.80;99.90
27164;DHT22;14685;50.618;7.024;2023-08-01T11:48:37;23.70;99.90
27164;DHT22;14685;50.618;7.024;2023-08-01T11:51:04;23.60;99.90
27164;DHT22;14685;50.618;7.024;2023-08-01T11:53:31;23.50;99.90
27164;DHT22;14685;50.618;7.024;2023-08-01T11:56:05;23.40;99.90
27164;DHT22;14685;50.618;7.024;2023-08-01T11:58:37;23.40;99.90
27164;DHT22;14685;50.618;7.024;2023-08-01T12:01:16;23.60;99.90
27164;DHT22;14685;50.618;7.024;2023-08-01T12:06:19;23.60;99.90
27164;DHT22;14685;50.618;7.024;2023-08-01T12:08:47;23.70;99.90
27164;DHT22;14685;50.618;7.024;2023-08-01T12:11:27;23.80;99.90
27164;DHT22;14685;50.618;7.024;2023-08-01T12:14:14;23.80;99.90
27164;DHT22;14685;50.618;7.024;2023-08-01T12:16:44;23.80;99.90
27164;DHT22;14685;50.618;7.024;2023-08-01T12:19:18;23.90;99.90
27164;DHT22;14685;50.618;7.024;2023-08-01T12:21:46;23.90;99.90
27164;DHT22;14685;50.618;7.024;2023-08-01T12:24:13;23.90;99.90
27164;DHT22;14685;50.618;7.024;2023-08-01T12:26:41;23.80;99.90
27164;DHT22;14685;50.618;7.024;2023-08-01T12:29:08;23.80;99.90
27164;DHT22;14685;50.618;7.024;2023-08-01T12:31:36;23.70;99.90
27164;DHT22;14685;50.618;7.024;2023-08-01T12:34:05;23.60;99.90
27164;DHT22;14685;50.618;7.024;2023-08-01T12:36:32;23.70;99.90
27164;DHT22;14685;50.618;7.024;2023-08-01T12:38:59;23.60;99.90
27164;DHT22;14685;50.618;7.024;2023-08-01T12:41:26;23.70;99.90
27164;DHT22;14685;50.618;7.024;2023-08-01T12:43:55;23.60;99.90
27164;DHT22;14685;50.618;7.024;2023-08-01T12:46:22;23.60;99.90
27164;DHT22;14685;50.618;7.024;2023-08-01T12:48:50;23.50;99.90
27164;DHT22;14685;50.618;7.024;2023-08-01T12:51:17;23.40;99.90
27164;DHT22;14685;50.618;7.024;2023-08-01T12:53:44;23.40;99.90
27164;DHT22;14685;50.618;7.024;2023-08-01T12:56:12;23.40;99.90
27164;DHT22;14685;50.618;7.024;2023-08-01T12:58:39;23.40;99.90
27164;DHT22;14685;50.618;7.024;2023-08-01T13:01:07;23.40;99.90
27164;DHT22;14685;50.618;7.024;2023-08-01T13:03:34;23.40;99.90
27164;DHT22;14685;50.618;7.024;2023-08-01T13:06:01;23.40;99.90
27164;DHT22;14685;50.618;7.024;2023-08-01T13:08:28;23.40;99.90
27164;DHT22;14685;50.618;7.024;2023-08-01T13:10:56;23.40;99.90
27164;DHT22;14685;50.618;7.024;2023-08-01T13:13:26;23.20;99.90
27164;DHT22;14685;50.618;7.024;2023-08-01T13:15:56;23.20;99.90
27164;DHT22;14685;50.618;7.024;2023-08-01T13:18:23;23.20;99.90
27164;DHT22;14685;50.618;7.024;2023-08-01T13:20:52;23.20;99.90
27164;DHT22;14685;50.618;7.024;2023-08-01T13:23:21;23.30;99.90
27164;DHT22;14685;50.618;7.024;2023-08-01T13:25:49;23.40;99.90
27164;DHT22;14685;50.618;7.024;2023-08-01T13:28:17;23.30;99.90
27164;DHT22;14685;50.618;7.024;2023-08-01T13:30:46;23.30;99.90
27164;DHT22;14685;50.618;7.024;2023-08-01T13:33:13;23.30;99.90
27164;DHT22;14685;50.618;7.024;2023-08-01T13:35:40;23.20;99.90
27164;DHT22;14685;50.618;7.024;2023-08-01T13:38:09;23.20;99.90
27164;DHT22;14685;50.618;7.024;2023-08-01T13:40:36;23.20;99.90
27164;DHT22;14685;50.618;7.024;2023-08-01T13:43:03;23.30;99.90
27164;DHT22;14685;50.618;7.024;2023-08-01T13:45:31;23.30;99.90
27164;DHT22;14685;50.618;7.024;2023-08-01T13:48:00;23.30;99.90
27164;DHT22;14685;50.618;7.024;2023-08-01T13:50:29;23.30;99.90
27164;DHT22;14685;50.618;7.024;2023-08-01T13:52:56;23.30;99.90
27164;DHT22;14685;50.618;7.024;2023-08-01T13:55:24;23.30;99.90
27164;DHT22;14685;50.618;7.024;2023-08-01T13:57:55;23.30;99.90
27164;DHT22;14685;50.618;7.024;2023-08-01T14:00:23;23.30;99.90
27164;DHT22;14685;50.618;7.024;2023-08-01T14:02:50;23.20;99.90
27164;DHT22;14685;50.618;7.024;2023-08-01T14:05:19;23.30;99.90
27164;DHT22;14685;50.618;7.024;2023-08-01T14:07:48;23.20;99.90
27164;DHT22;14685;50.618;7.024;2023-08-01T14:10:15;23.20;99.90
27164;DHT22;14685;50.618;7.024;2023-08-01T14:12:43;23.10;99.90
27164;DHT22;14685;50.618;7.024;2023-08-01T14:15:10;23.10;99.90
27164;DHT22;14685;50.618;7.024;2023-08-01T14:17:38;23.00;99.90
27164;DHT22;14685;50.618;7.024;2023-08-01T14:20:06;22.90;99.90
27164;DHT22;14685;50.618;7.024;2023-08-01T14:22:34;22.90;99.90
27164;DHT22;14685;50.618;7.024;2023-08-01T14:25:01;22.80;99.90
27164;DHT22;14685;50.618;7.024;2023-08-01T14:27:29;22.60;99.90
27164;DHT22;14685;50.618;7.024;2023-08-01T14:29:56;22.60;99.90
27164;DHT22;14685;50.618;7.024;2023-08-01T14:32:24;22.50;99.90
27164;DHT22;14685;50.618;7.024;2023-08-01T14:34:51;22.50;99.90
27164;DHT22;14685;50.618;7.024;2023-08-01T14:37:18;22.50;99.90
27164;DHT22;14685;50.618;7.024;2023-08-01T14:39:49;22.40;99.90
27164;DHT22;14685;50.618;7.024;2023-08-01T14:42:17;22.30;99.90
27164;DHT22;14685;50.618;7.024;2023-08-01T14:44:46;22.50;99.90
27164;DHT22;14685;50.618;7.024;2023-08-01T14:47:17;22.40;99.90
27164;DHT22;14685;50.618;7.024;2023-08-01T14:49:48;22.40;99.90
27164;DHT22;14685;50.618;7.024;2023-08-01T14:52:16;22.50;99.90
27164;DHT22;14685;50.618;7.024;2023-08-01T14:54:46;22.50;99.90
27164;DHT22;14685;50.618;7.024;2023-08-01T14:57:13;22.50;99.90
27164;DHT22;14685;50.618;7.024;2023-08-01T14:59:40;22.50;99.90
27164;DHT22;14685;50.618;7.024;2023-08-01T15:02:07;22.50;99.90
27164;DHT22;14685;50.618;7.024;2023-08-01T15:04:37;22.60;99.90
27164;DHT22;14685;50.618;7.024;2023-08-01T15:07:06;22.60;99.90
27164;DHT22;14685;50.618;7.024;2023-08-01T15:09:35;22.70;99.90
27164;DHT22;14685;50.618;7.024;2023-08-01T15:12:02;22.70;99.90
27164;DHT22;14685;50.618;7.024;2023-08-01T15:14:31;22.70;99.90
27164;DHT22;14685;50.618;7.024;2023-08-01T15:16:58;22.70;99.90
27164;DHT22;14685;50.618;7.024;2023-08-01T15:19:24;22.70;99.90
27164;DHT22;14685;50.618;7.024;2023-08-01T15:21:51;22.70;99.90
27164;DHT22;14685;50.618;7.024;2023-08-01T15:24:18;22.70;99.90
27164;DHT22;14685;50.618;7.024;2023-08-01T15:26:47;22.70;99.90
27164;DHT22;14685;50.618;7.024;2023-08-01T15:29:15;22.90;99.90
27164;DHT22;14685;50.618;7.024;2023-08-01T15:31:42;22.90;99.90
27164;DHT22;14685;50.618;7.024;2023-08-01T15:34:10;22.90;99.90
27164;DHT22;14685;50.618;7.024;2023-08-01T15:36:37;22.90;99.90
27164;DHT22;14685;50.618;7.024;2023-08-01T15:39:05;22.90;99.90
27164;DHT22;14685;50.618;7.024;2023-08-01T15:41:31;22.90;99.90
27164;DHT22;14685;50.618;7.024;2023-08-01T15:43:58;22.90;99.90